sensor_id;sensor_type;location;lat;lon;timestamp;temperature;humidity
53748;DHT22;39655;53.210;5.768;2022-10-26T00:01:37;11.40;94.50
53748;DHT22;39655;53.210;5.768;2022-10-26T00:04:03;11.30;94.50
53748;DHT22;39655;53.210;5.768;2022-10-26T00:06:29;11.40;94.50
53748;DHT22;39655;53.210;5.768;2022-10-26T00:08:56;11.30;94.50
53748;DHT22;39655;53.210;5.768;2022-10-26T00:11:25;11.30;94.40
53748;DHT22;39655;53.210;5.768;2022-10-26T00:13:51;11.30;94.40
53748;DHT22;39655;53.210;5.768;2022-10-26T00:16:20;11.40;94.40
53748;DHT22;39655;53.210;5.768;2022-10-26T00:18:46;11.30;94.40
53748;DHT22;39655;53.210;5.768;2022-10-26T00:21:12;11.30;94.40
53748;DHT22;39655;53.210;5.768;2022-10-26T00:23:38;11.30;94.40
53748;DHT22;39655;53.210;5.768;2022-10-26T00:26:04;11.30;94.40
53748;DHT22;39655;53.210;5.768;2022-10-26T00:28:30;11.30;94.40
53748;DHT22;39655;53.210;5.768;2022-10-26T00:31:04;11.20;94.40
53748;DHT22;39655;53.210;5.768;2022-10-26T00:33:30;11.20;94.30
53748;DHT22;39655;53.210;5.768;2022-10-26T00:35:57;11.20;94.30
53748;DHT22;39655;53.210;5.768;2022-10-26T00:38:22;11.20;94.30
53748;DHT22;39655;53.210;5.768;2022-10-26T00:40:48;11.10;94.30
53748;DHT22;39655;53.210;5.768;2022-10-26T00:43:31;11.10;94.30
53748;DHT22;39655;53.210;5.768;2022-10-26T00:45:58;11.10;94.30
53748;DHT22;39655;53.210;5.768;2022-10-26T00:48:28;11.10;94.30
53748;DHT22;39655;53.210;5.768;2022-10-26T00:50:55;11.10;94.30
53748;DHT22;39655;53.210;5.768;2022-10-26T00:53:23;11.00;94.30
53748;DHT22;39655;53.210;5.768;2022-10-26T00:55:54;11.00;94.30
53748;DHT22;39655;53.210;5.768;2022-10-26T00:58:23;10.90;94.30
53748;DHT22;39655;53.210;5.768;2022-10-26T01:00:50;10.90;94.30
53748;DHT22;39655;53.210;5.768;2022-10-26T01:03:16;10.90;94.40
53748;DHT22;39655;53.210;5.768;2022-10-26T01:05:44;10.90;94.30
53748;DHT22;39655;53.210;5.768;2022-10-26T01:08:11;10.90;94.40
53748;DHT22;39655;53.210;5.768;2022-10-26T01:10:39;10.80;94.30
53748;DHT22;39655;53.210;5.768;2022-10-26T01:13:06;10.80;94.30
53748;DHT22;39655;53.210;5.768;2022-10-26T01:18:36;10.70;94.40
53748;DHT22;39655;53.210;5.768;2022-10-26T01:21:47;10.70;94.50
53748;DHT22;39655;53.210;5.768;2022-10-26T01:27:44;10.70;94.40
53748;DHT22;39655;53.210;5.768;2022-10-26T01:32:43;10.70;94.50
53748;DHT22;39655;53.210;5.768;2022-10-26T01:35:31;10.60;94.60
53748;DHT22;39655;53.210;5.768;2022-10-26T01:38:06;10.60;94.50
53748;DHT22;39655;53.210;5.768;2022-10-26T01:40:42;10.60;94.50
53748;DHT22;39655;53.210;5.768;2022-10-26T01:43:13;10.60;94.50
53748;DHT22;39655;53.210;5.768;2022-10-26T01:45:43;10.60;94.50
53748;DHT22;39655;53.210;5.768;2022-10-26T01:48:13;10.50;94.50
53748;DHT22;39655;53.210;5.768;2022-10-26T01:50:42;10.50;94.50
53748;DHT22;39655;53.210;5.768;2022-10-26T01:53:12;10.50;94.50
53748;DHT22;39655;53.210;5.768;2022-10-26T01:58:14;10.40;94.50
53748;DHT22;39655;53.210;5.768;2022-10-26T02:00:53;10.40;94.50
53748;DHT22;39655;53.210;5.768;2022-10-26T02:03:55;10.40;94.60
53748;DHT22;39655;53.210;5.768;2022-10-26T02:06:30;10.40;94.60
53748;DHT22;39655;53.210;5.768;2022-10-26T02:11:50;10.40;94.60
53748;DHT22;39655;53.210;5.768;2022-10-26T02:14:43;10.30;94.60
53748;DHT22;39655;53.210;5.768;2022-10-26T02:17:32;10.30;94.70
53748;DHT22;39655;53.210;5.768;2022-10-26T02:20:04;10.30;94.70
53748;DHT22;39655;53.210;5.768;2022-10-26T02:22:35;10.30;94.70
53748;DHT22;39655;53.210;5.768;2022-10-26T02:25:12;10.20;94.70
53748;DHT22;39655;53.210;5.768;2022-10-26T02:27:47;10.30;94.80
53748;DHT22;39655;53.210;5.768;2022-10-26T02:30:14;10.30;94.80
53748;DHT22;39655;53.210;5.768;2022-10-26T02:32:49;10.30;94.80
53748;DHT22;39655;53.210;5.768;2022-10-26T02:35:21;10.30;94.80
53748;DHT22;39655;53.210;5.768;2022-10-26T02:37:50;10.30;94.80
53748;DHT22;39655;53.210;5.768;2022-10-26T02:40:21;10.30;94.80
53748;DHT22;39655;53.210;5.768;2022-10-26T02:42:49;10.20;94.90
53748;DHT22;39655;53.210;5.768;2022-10-26T02:45:20;10.30;94.90
53748;DHT22;39655;53.210;5.768;2022-10-26T02:47:47;10.30;94.90
53748;DHT22;39655;53.210;5.768;2022-10-26T02:50:13;10.20;94.90
53748;DHT22;39655;53.210;5.768;2022-10-26T02:52:50;10.30;94.90
53748;DHT22;39655;53.210;5.768;2022-10-26T02:55:23;10.30;94.90
53748;DHT22;39655;53.210;5.768;2022-10-26T02:57:56;10.30;94.90
53748;DHT22;39655;53.210;5.768;2022-10-26T03:00:23;10.30;95.00
53748;DHT22;39655;53.210;5.768;2022-10-26T03:02:57;10.30;95.00
53748;DHT22;39655;53.210;5.768;2022-10-26T03:05:24;10.30;94.90
53748;DHT22;39655;53.210;5.768;2022-10-26T03:07:50;10.30;95.00
53748;DHT22;39655;53.210;5.768;2022-10-26T03:10:16;10.30;94.90
53748;DHT22;39655;53.210;5.768;2022-10-26T03:12:42;10.30;95.00
53748;DHT22;39655;53.210;5.768;2022-10-26T03:15:08;10.40;95.00
53748;DHT22;39655;53.210;5.768;2022-10-26T03:17:34;10.40;95.00
53748;DHT22;39655;53.210;5.768;2022-10-26T03:19:59;10.40;95.00
53748;DHT22;39655;53.210;5.768;2022-10-26T03:22:25;10.40;95.00
53748;DHT22;39655;53.210;5.768;2022-10-26T03:24:53;10.40;95.00
53748;DHT22;39655;53.210;5.768;2022-10-26T03:27:19;10.40;95.00
53748;DHT22;39655;53.210;5.768;2022-10-26T03:29:45;10.40;95.00
53748;DHT22;39655;53.210;5.768;2022-10-26T03:32:10;10.40;95.00
53748;DHT22;39655;53.210;5.768;2022-10-26T03:34:36;10.40;95.00
53748;DHT22;39655;53.210;5.768;2022-10-26T03:37:02;10.40;94.90
53748;DHT22;39655;53.210;5.768;2022-10-26T03:39:28;10.40;94.90
53748;DHT22;39655;53.210;5.768;2022-10-26T03:41:53;10.40;94.90
53748;DHT22;39655;53.210;5.768;2022-10-26T03:44:21;10.40;94.90
53748;DHT22;39655;53.210;5.768;2022-10-26T03:46:48;10.50;94.90
53748;DHT22;39655;53.210;5.768;2022-10-26T03:49:14;10.50;94.90
53748;DHT22;39655;53.210;5.768;2022-10-26T03:51:40;10.50;94.80
53748;DHT22;39655;53.210;5.768;2022-10-26T03:54:05;10.50;94.80
53748;DHT22;39655;53.210;5.768;2022-10-26T03:56:31;10.50;94.80
53748;DHT22;39655;53.210;5.768;2022-10-26T03:58:57;10.50;94.80
53748;DHT22;39655;53.210;5.768;2022-10-26T04:01:23;10.50;94.80
53748;DHT22;39655;53.210;5.768;2022-10-26T04:03:48;10.60;94.80
53748;DHT22;39655;53.210;5.768;2022-10-26T04:06:14;10.60;94.80
53748;DHT22;39655;53.210;5.768;2022-10-26T04:08:40;10.60;94.80
53748;DHT22;39655;53.210;5.768;2022-10-26T04:11:05;10.60;94.70
53748;DHT22;39655;53.210;5.768;2022-10-26T04:13:31;10.60;94.70
53748;DHT22;39655;53.210;5.768;2022-10-26T04:15:57;10.70;94.70
53748;DHT22;39655;53.210;5.768;2022-10-26T04:18:23;10.60;94.70
53748;DHT22;39655;53.210;5.768;2022-10-26T04:20:49;10.70;94.70
53748;DHT22;39655;53.210;5.768;2022-10-26T04:23:16;10.70;94.60
53748;DHT22;39655;53.210;5.768;2022-10-26T04:25:42;10.70;94.60
53748;DHT22;39655;53.210;5.768;2022-10-26T04:28:09;10.70;94.60
53748;DHT22;39655;53.210;5.768;2022-10-26T04:30:36;10.70;94.60
53748;DHT22;39655;53.210;5.768;2022-10-26T04:33:02;10.70;94.50
53748;DHT22;39655;53.210;5.768;2022-10-26T04:35:29;10.80;94.50
53748;DHT22;39655;53.210;5.768;2022-10-26T04:38:04;10.70;94.50
53748;DHT22;39655;53.210;5.768;2022-10-26T04:40:31;10.70;94.50
53748;DHT22;39655;53.210;5.768;2022-10-26T04:42:57;10.80;94.50
53748;DHT22;39655;53.210;5.768;2022-10-26T04:45:23;10.80;94.50
53748;DHT22;39655;53.210;5.768;2022-10-26T04:48:05;10.80;94.50
53748;DHT22;39655;53.210;5.768;2022-10-26T04:50:32;10.80;94.50
53748;DHT22;39655;53.210;5.768;2022-10-26T04:52:57;10.80;94.50
53748;DHT22;39655;53.210;5.768;2022-10-26T04:55:23;10.80;94.50
53748;DHT22;39655;53.210;5.768;2022-10-26T04:57:49;10.80;94.40
53748;DHT22;39655;53.210;5.768;2022-10-26T05:00:15;10.90;94.40
53748;DHT22;39655;53.210;5.768;2022-10-26T05:02:41;10.80;94.40
53748;DHT22;39655;53.210;5.768;2022-10-26T05:05:07;10.80;94.40
53748;DHT22;39655;53.210;5.768;2022-10-26T05:07:32;10.90;94.40
53748;DHT22;39655;53.210;5.768;2022-10-26T05:09:58;10.80;94.30
53748;DHT22;39655;53.210;5.768;2022-10-26T05:12:24;10.80;94.30
53748;DHT22;39655;53.210;5.768;2022-10-26T05:14:49;10.80;94.30
53748;DHT22;39655;53.210;5.768;2022-10-26T05:17:17;10.80;94.40
53748;DHT22;39655;53.210;5.768;2022-10-26T05:19:43;10.80;94.40
53748;DHT22;39655;53.210;5.768;2022-10-26T05:22:09;10.80;94.40
53748;DHT22;39655;53.210;5.768;2022-10-26T05:24:35;10.80;94.40
53748;DHT22;39655;53.210;5.768;2022-10-26T05:27:00;10.80;94.40
53748;DHT22;39655;53.210;5.768;2022-10-26T05:29:26;10.90;94.40
53748;DHT22;39655;53.210;5.768;2022-10-26T05:31:52;10.90;94.40
53748;DHT22;39655;53.210;5.768;2022-10-26T05:34:18;10.90;94.50
53748;DHT22;39655;53.210;5.768;2022-10-26T05:36:43;10.90;94.40
53748;DHT22;39655;53.210;5.768;2022-10-26T05:39:09;10.90;94.50
53748;DHT22;39655;53.210;5.768;2022-10-26T05:41:34;10.90;94.50
53748;DHT22;39655;53.210;5.768;2022-10-26T05:44:00;10.90;94.40
53748;DHT22;39655;53.210;5.768;2022-10-26T05:46:26;10.90;94.50
53748;DHT22;39655;53.210;5.768;2022-10-26T05:48:54;10.90;94.50
53748;DHT22;39655;53.210;5.768;2022-10-26T05:51:20;10.90;94.50
53748;DHT22;39655;53.210;5.768;2022-10-26T05:53:46;10.90;94.50
53748;DHT22;39655;53.210;5.768;2022-10-26T05:56:36;10.90;94.50
53748;DHT22;39655;53.210;5.768;2022-10-26T05:59:04;10.90;94.50
53748;DHT22;39655;53.210;5.768;2022-10-26T06:04:32;10.90;94.50
53748;DHT22;39655;53.210;5.768;2022-10-26T06:07:02;10.90;94.50
53748;DHT22;39655;53.210;5.768;2022-10-26T06:09:28;10.90;94.50
53748;DHT22;39655;53.210;5.768;2022-10-26T06:11:57;10.90;94.50
53748;DHT22;39655;53.210;5.768;2022-10-26T06:14:23;10.90;94.50
53748;DHT22;39655;53.210;5.768;2022-10-26T06:19:54;10.90;94.50
53748;DHT22;39655;53.210;5.768;2022-10-26T06:30:06;10.80;94.50
53748;DHT22;39655;53.210;5.768;2022-10-26T06:32:35;10.80;94.50
53748;DHT22;39655;53.210;5.768;2022-10-26T06:35:40;10.80;94.50
53748;DHT22;39655;53.210;5.768;2022-10-26T06:38:13;10.80;94.50
53748;DHT22;39655;53.210;5.768;2022-10-26T06:40:42;10.80;94.50
53748;DHT22;39655;53.210;5.768;2022-10-26T06:43:15;10.70;94.60
53748;DHT22;39655;53.210;5.768;2022-10-26T06:45:45;10.70;94.60
53748;DHT22;39655;53.210;5.768;2022-10-26T06:48:22;10.70;94.60
53748;DHT22;39655;53.210;5.768;2022-10-26T06:50:52;10.70;94.70
53748;DHT22;39655;53.210;5.768;2022-10-26T06:56:30;10.80;94.80
53748;DHT22;39655;53.210;5.768;2022-10-26T06:59:07;10.80;94.90
53748;DHT22;39655;53.210;5.768;2022-10-26T07:01:33;10.80;94.90
53748;DHT22;39655;53.210;5.768;2022-10-26T07:03:59;10.90;94.90
53748;DHT22;39655;53.210;5.768;2022-10-26T07:06:24;11.00;95.00
53748;DHT22;39655;53.210;5.768;2022-10-26T07:08:50;11.00;95.00
53748;DHT22;39655;53.210;5.768;2022-10-26T07:11:16;11.10;94.90
53748;DHT22;39655;53.210;5.768;2022-10-26T07:13:41;11.10;94.90
53748;DHT22;39655;53.210;5.768;2022-10-26T07:16:07;11.10;94.90
53748;DHT22;39655;53.210;5.768;2022-10-26T07:18:33;11.10;94.80
53748;DHT22;39655;53.210;5.768;2022-10-26T07:20:58;11.20;94.80
53748;DHT22;39655;53.210;5.768;2022-10-26T07:23:24;11.20;94.70
53748;DHT22;39655;53.210;5.768;2022-10-26T07:25:50;11.20;94.70
53748;DHT22;39655;53.210;5.768;2022-10-26T07:28:15;11.30;94.60
53748;DHT22;39655;53.210;5.768;2022-10-26T07:30:41;11.30;94.60
53748;DHT22;39655;53.210;5.768;2022-10-26T07:33:11;11.40;94.50
53748;DHT22;39655;53.210;5.768;2022-10-26T07:35:37;11.40;94.50
53748;DHT22;39655;53.210;5.768;2022-10-26T07:38:07;11.50;94.50
53748;DHT22;39655;53.210;5.768;2022-10-26T07:40:33;11.50;94.40
53748;DHT22;39655;53.210;5.768;2022-10-26T07:42:59;11.60;94.30
53748;DHT22;39655;53.210;5.768;2022-10-26T07:45:26;11.60;94.20
53748;DHT22;39655;53.210;5.768;2022-10-26T07:47:55;11.60;94.10
53748;DHT22;39655;53.210;5.768;2022-10-26T07:50:27;11.60;94.10
53748;DHT22;39655;53.210;5.768;2022-10-26T07:52:58;11.60;94.10
53748;DHT22;39655;53.210;5.768;2022-10-26T07:55:27;11.70;94.00
53748;DHT22;39655;53.210;5.768;2022-10-26T07:57:54;11.70;94.00
53748;DHT22;39655;53.210;5.768;2022-10-26T08:00:22;11.70;94.00
53748;DHT22;39655;53.210;5.768;2022-10-26T08:02:48;11.70;94.00
53748;DHT22;39655;53.210;5.768;2022-10-26T08:05:13;11.70;93.90
53748;DHT22;39655;53.210;5.768;2022-10-26T08:07:43;11.80;94.00
53748;DHT22;39655;53.210;5.768;2022-10-26T08:10:10;11.80;93.90
53748;DHT22;39655;53.210;5.768;2022-10-26T08:12:36;11.90;93.90
53748;DHT22;39655;53.210;5.768;2022-10-26T08:15:10;12.00;93.90
53748;DHT22;39655;53.210;5.768;2022-10-26T08:17:36;12.10;93.80
53748;DHT22;39655;53.210;5.768;2022-10-26T08:20:02;12.10;93.80
53748;DHT22;39655;53.210;5.768;2022-10-26T08:22:28;12.20;93.70
53748;DHT22;39655;53.210;5.768;2022-10-26T08:24:55;12.20;93.70
53748;DHT22;39655;53.210;5.768;2022-10-26T08:27:21;12.30;93.70
53748;DHT22;39655;53.210;5.768;2022-10-26T08:29:46;12.40;93.60
53748;DHT22;39655;53.210;5.768;2022-10-26T08:32:12;12.40;93.40
53748;DHT22;39655;53.210;5.768;2022-10-26T08:34:37;12.50;93.30
53748;DHT22;39655;53.210;5.768;2022-10-26T08:37:03;12.60;93.20
53748;DHT22;39655;53.210;5.768;2022-10-26T08:39:29;12.70;93.20
53748;DHT22;39655;53.210;5.768;2022-10-26T08:42:13;12.70;93.20
53748;DHT22;39655;53.210;5.768;2022-10-26T08:44:47;12.80;92.80
53748;DHT22;39655;53.210;5.768;2022-10-26T08:47:20;12.80;92.70
53748;DHT22;39655;53.210;5.768;2022-10-26T08:50:44;12.90;92.60
53748;DHT22;39655;53.210;5.768;2022-10-26T08:52:58;13.00;92.50
53748;DHT22;39655;53.210;5.768;2022-10-26T08:55:44;13.10;92.50
53748;DHT22;39655;53.210;5.768;2022-10-26T08:58:20;13.10;92.30
53748;DHT22;39655;53.210;5.768;2022-10-26T09:00:50;13.30;92.10
53748;DHT22;39655;53.210;5.768;2022-10-26T09:03:19;13.40;92.10
53748;DHT22;39655;53.210;5.768;2022-10-26T09:22:55;13.80;90.30
53748;DHT22;39655;53.210;5.768;2022-10-26T09:25:26;13.90;90.20
53748;DHT22;39655;53.210;5.768;2022-10-26T09:27:57;14.00;90.10
53748;DHT22;39655;53.210;5.768;2022-10-26T09:30:27;14.10;89.90
53748;DHT22;39655;53.210;5.768;2022-10-26T09:32:58;14.20;89.50
53748;DHT22;39655;53.210;5.768;2022-10-26T09:35:27;14.30;89.40
53748;DHT22;39655;53.210;5.768;2022-10-26T09:38:04;14.40;89.20
53748;DHT22;39655;53.210;5.768;2022-10-26T09:40:37;14.40;89.00
53748;DHT22;39655;53.210;5.768;2022-10-26T09:43:13;14.40;88.70
53748;DHT22;39655;53.210;5.768;2022-10-26T09:45:45;14.60;88.40
53748;DHT22;39655;53.210;5.768;2022-10-26T09:48:41;14.60;88.40
53748;DHT22;39655;53.210;5.768;2022-10-26T09:51:10;14.70;88.00
53748;DHT22;39655;53.210;5.768;2022-10-26T09:53:36;14.80;88.30
53748;DHT22;39655;53.210;5.768;2022-10-26T09:56:12;14.80;87.90
53748;DHT22;39655;53.210;5.768;2022-10-26T09:59:04;14.90;87.60
53748;DHT22;39655;53.210;5.768;2022-10-26T10:01:34;14.90;87.70
53748;DHT22;39655;53.210;5.768;2022-10-26T10:06:32;15.00;87.90
53748;DHT22;39655;53.210;5.768;2022-10-26T10:09:21;15.00;87.60
53748;DHT22;39655;53.210;5.768;2022-10-26T10:11:53;15.10;87.30
53748;DHT22;39655;53.210;5.768;2022-10-26T10:14:21;15.30;87.10
53748;DHT22;39655;53.210;5.768;2022-10-26T10:17:00;15.40;87.40
53748;DHT22;39655;53.210;5.768;2022-10-26T10:19:29;15.40;87.30
53748;DHT22;39655;53.210;5.768;2022-10-26T10:21:58;15.50;87.30
53748;DHT22;39655;53.210;5.768;2022-10-26T10:24:32;15.60;87.10
53748;DHT22;39655;53.210;5.768;2022-10-26T10:27:01;15.60;86.90
53748;DHT22;39655;53.210;5.768;2022-10-26T10:29:39;15.60;86.60
53748;DHT22;39655;53.210;5.768;2022-10-26T10:32:05;15.60;86.30
53748;DHT22;39655;53.210;5.768;2022-10-26T10:34:32;15.60;86.30
53748;DHT22;39655;53.210;5.768;2022-10-26T10:36:59;15.70;86.10
53748;DHT22;39655;53.210;5.768;2022-10-26T10:39:35;15.70;86.10
53748;DHT22;39655;53.210;5.768;2022-10-26T10:42:04;15.70;86.20
53748;DHT22;39655;53.210;5.768;2022-10-26T10:44:32;15.70;86.50
53748;DHT22;39655;53.210;5.768;2022-10-26T10:47:05;15.80;86.50
53748;DHT22;39655;53.210;5.768;2022-10-26T10:49:32;15.90;87.00
53748;DHT22;39655;53.210;5.768;2022-10-26T10:52:01;16.00;86.80
53748;DHT22;39655;53.210;5.768;2022-10-26T10:54:36;16.00;86.30
53748;DHT22;39655;53.210;5.768;2022-10-26T10:57:21;16.10;85.60
53748;DHT22;39655;53.210;5.768;2022-10-26T11:00:01;16.10;85.80
53748;DHT22;39655;53.210;5.768;2022-10-26T11:02:56;16.20;85.90
53748;DHT22;39655;53.210;5.768;2022-10-26T11:10:46;16.50;85.30
53748;DHT22;39655;53.210;5.768;2022-10-26T11:13:24;16.50;84.30
53748;DHT22;39655;53.210;5.768;2022-10-26T11:15:55;16.60;84.30
53748;DHT22;39655;53.210;5.768;2022-10-26T11:18:30;16.60;84.40
53748;DHT22;39655;53.210;5.768;2022-10-26T11:21:35;16.70;83.30
53748;DHT22;39655;53.210;5.768;2022-10-26T11:24:14;16.90;84.20
53748;DHT22;39655;53.210;5.768;2022-10-26T11:29:20;17.00;84.00
53748;DHT22;39655;53.210;5.768;2022-10-26T11:31:53;17.10;83.50
53748;DHT22;39655;53.210;5.768;2022-10-26T11:34:26;17.10;82.80
53748;DHT22;39655;53.210;5.768;2022-10-26T11:37:02;17.10;83.00
53748;DHT22;39655;53.210;5.768;2022-10-26T11:39:33;17.10;82.80
53748;DHT22;39655;53.210;5.768;2022-10-26T11:42:16;17.10;83.00
53748;DHT22;39655;53.210;5.768;2022-10-26T11:44:49;17.10;82.80
53748;DHT22;39655;53.210;5.768;2022-10-26T11:47:45;17.20;82.60
53748;DHT22;39655;53.210;5.768;2022-10-26T11:50:21;17.30;82.40
53748;DHT22;39655;53.210;5.768;2022-10-26T11:53:17;17.30;82.40
53748;DHT22;39655;53.210;5.768;2022-10-26T11:55:51;17.40;82.50
53748;DHT22;39655;53.210;5.768;2022-10-26T11:58:22;17.40;82.20
53748;DHT22;39655;53.210;5.768;2022-10-26T12:00:55;17.30;81.90
53748;DHT22;39655;53.210;5.768;2022-10-26T12:03:32;17.30;82.80
53748;DHT22;39655;53.210;5.768;2022-10-26T12:05:59;17.30;82.90
53748;DHT22;39655;53.210;5.768;2022-10-26T12:08:40;17.30;82.70
53748;DHT22;39655;53.210;5.768;2022-10-26T12:14:14;17.40;82.50
53748;DHT22;39655;53.210;5.768;2022-10-26T12:16:56;17.50;82.60
53748;DHT22;39655;53.210;5.768;2022-10-26T12:19:33;17.60;82.60
53748;DHT22;39655;53.210;5.768;2022-10-26T12:22:00;17.70;82.20
53748;DHT22;39655;53.210;5.768;2022-10-26T12:24:28;17.80;82.10
53748;DHT22;39655;53.210;5.768;2022-10-26T12:26:56;17.80;82.20
53748;DHT22;39655;53.210;5.768;2022-10-26T12:29:26;17.80;82.10
53748;DHT22;39655;53.210;5.768;2022-10-26T12:31:52;17.90;82.40
53748;DHT22;39655;53.210;5.768;2022-10-26T12:39:32;18.10;81.20
53748;DHT22;39655;53.210;5.768;2022-10-26T12:44:37;18.30;81.90
53748;DHT22;39655;53.210;5.768;2022-10-26T12:47:05;18.40;81.40
53748;DHT22;39655;53.210;5.768;2022-10-26T12:52:40;18.60;81.20
53748;DHT22;39655;53.210;5.768;2022-10-26T12:55:23;18.60;80.80
53748;DHT22;39655;53.210;5.768;2022-10-26T12:58:03;18.60;80.30
53748;DHT22;39655;53.210;5.768;2022-10-26T13:00:36;18.70;80.50
53748;DHT22;39655;53.210;5.768;2022-10-26T13:06:35;18.90;80.90
53748;DHT22;39655;53.210;5.768;2022-10-26T13:09:13;18.90;80.60
53748;DHT22;39655;53.210;5.768;2022-10-26T13:11:46;18.80;80.60
53748;DHT22;39655;53.210;5.768;2022-10-26T13:14:20;18.60;81.10
53748;DHT22;39655;53.210;5.768;2022-10-26T13:16:48;18.50;81.90
53748;DHT22;39655;53.210;5.768;2022-10-26T13:19:40;18.40;82.00
53748;DHT22;39655;53.210;5.768;2022-10-26T13:22:11;18.30;82.40
53748;DHT22;39655;53.210;5.768;2022-10-26T13:24:53;18.20;82.30
53748;DHT22;39655;53.210;5.768;2022-10-26T13:27:23;18.10;83.10
53748;DHT22;39655;53.210;5.768;2022-10-26T13:32:39;18.40;82.90
53748;DHT22;39655;53.210;5.768;2022-10-26T13:35:11;18.60;82.70
53748;DHT22;39655;53.210;5.768;2022-10-26T13:37:42;18.80;82.20
53748;DHT22;39655;53.210;5.768;2022-10-26T13:40:12;19.00;81.50
53748;DHT22;39655;53.210;5.768;2022-10-26T13:42:49;19.10;81.10
53748;DHT22;39655;53.210;5.768;2022-10-26T13:45:27;19.20;80.80
53748;DHT22;39655;53.210;5.768;2022-10-26T13:48:57;19.20;80.40
53748;DHT22;39655;53.210;5.768;2022-10-26T13:51:11;19.30;80.00
53748;DHT22;39655;53.210;5.768;2022-10-26T13:53:54;19.40;80.20
53748;DHT22;39655;53.210;5.768;2022-10-26T13:56:35;19.30;79.70
53748;DHT22;39655;53.210;5.768;2022-10-26T13:59:08;19.20;80.00
53748;DHT22;39655;53.210;5.768;2022-10-26T14:01:34;19.00;80.60
53748;DHT22;39655;53.210;5.768;2022-10-26T14:04:27;18.80;81.50
53748;DHT22;39655;53.210;5.768;2022-10-26T14:06:53;18.80;82.10
53748;DHT22;39655;53.210;5.768;2022-10-26T14:09:20;18.80;82.10
53748;DHT22;39655;53.210;5.768;2022-10-26T14:11:55;18.90;81.80
53748;DHT22;39655;53.210;5.768;2022-10-26T14:14:28;18.70;81.50
53748;DHT22;39655;53.210;5.768;2022-10-26T14:16:55;18.70;82.00
53748;DHT22;39655;53.210;5.768;2022-10-26T14:19:25;18.60;82.20
53748;DHT22;39655;53.210;5.768;2022-10-26T14:21:51;18.40;82.80
53748;DHT22;39655;53.210;5.768;2022-10-26T14:24:31;18.40;83.00
53748;DHT22;39655;53.210;5.768;2022-10-26T14:26:57;18.30;83.30
53748;DHT22;39655;53.210;5.768;2022-10-26T14:29:25;18.40;83.60
53748;DHT22;39655;53.210;5.768;2022-10-26T14:31:54;18.30;83.40
53748;DHT22;39655;53.210;5.768;2022-10-26T14:34:20;18.40;83.80
53748;DHT22;39655;53.210;5.768;2022-10-26T14:36:53;18.60;83.60
53748;DHT22;39655;53.210;5.768;2022-10-26T14:41:52;18.40;82.90
53748;DHT22;39655;53.210;5.768;2022-10-26T14:44:21;18.30;83.20
53748;DHT22;39655;53.210;5.768;2022-10-26T14:46:47;18.10;83.80
53748;DHT22;39655;53.210;5.768;2022-10-26T14:49:21;17.90;84.40
53748;DHT22;39655;53.210;5.768;2022-10-26T14:51:54;17.80;84.60
53748;DHT22;39655;53.210;5.768;2022-10-26T14:54:25;17.70;85.20
53748;DHT22;39655;53.210;5.768;2022-10-26T14:56:54;17.70;85.30
53748;DHT22;39655;53.210;5.768;2022-10-26T15:01:54;17.70;85.10
53748;DHT22;39655;53.210;5.768;2022-10-26T15:04:41;17.70;85.10
53748;DHT22;39655;53.210;5.768;2022-10-26T15:07:17;17.70;85.10
53748;DHT22;39655;53.210;5.768;2022-10-26T15:09:44;17.70;85.20
53748;DHT22;39655;53.210;5.768;2022-10-26T15:12:27;17.60;85.10
53748;DHT22;39655;53.210;5.768;2022-10-26T15:14:54;17.60;85.30
53748;DHT22;39655;53.210;5.768;2022-10-26T15:17:23;17.60;85.40
53748;DHT22;39655;53.210;5.768;2022-10-26T15:19:52;17.50;85.60
53748;DHT22;39655;53.210;5.768;2022-10-26T15:22:26;17.50;85.70
53748;DHT22;39655;53.210;5.768;2022-10-26T15:24:58;17.50;85.60
53748;DHT22;39655;53.210;5.768;2022-10-26T15:27:26;17.40;85.70
53748;DHT22;39655;53.210;5.768;2022-10-26T15:32:43;17.40;85.90
53748;DHT22;39655;53.210;5.768;2022-10-26T15:37:42;17.30;86.10
53748;DHT22;39655;53.210;5.768;2022-10-26T15:40:08;17.20;86.20
53748;DHT22;39655;53.210;5.768;2022-10-26T15:42:35;17.20;86.40
53748;DHT22;39655;53.210;5.768;2022-10-26T15:45:03;17.10;86.60
53748;DHT22;39655;53.210;5.768;2022-10-26T15:47:31;17.10;86.80
53748;DHT22;39655;53.210;5.768;2022-10-26T15:49:57;17.00;86.90
53748;DHT22;39655;53.210;5.768;2022-10-26T15:52:23;17.00;86.90
53748;DHT22;39655;53.210;5.768;2022-10-26T15:54:49;16.90;87.10
53748;DHT22;39655;53.210;5.768;2022-10-26T15:57:15;16.90;87.10
53748;DHT22;39655;53.210;5.768;2022-10-26T15:59:41;16.90;87.30
53748;DHT22;39655;53.210;5.768;2022-10-26T16:02:14;16.90;87.30
53748;DHT22;39655;53.210;5.768;2022-10-26T16:04:40;16.80;87.40
53748;DHT22;39655;53.210;5.768;2022-10-26T16:07:17;16.90;87.50
53748;DHT22;39655;53.210;5.768;2022-10-26T16:09:57;16.90;87.50
53748;DHT22;39655;53.210;5.768;2022-10-26T16:12:23;16.90;87.40
53748;DHT22;39655;53.210;5.768;2022-10-26T16:14:49;16.80;87.30
53748;DHT22;39655;53.210;5.768;2022-10-26T16:17:15;16.80;87.30
53748;DHT22;39655;53.210;5.768;2022-10-26T16:19:43;16.80;87.30
53748;DHT22;39655;53.210;5.768;2022-10-26T16:22:10;16.80;87.30
53748;DHT22;39655;53.210;5.768;2022-10-26T16:24:38;16.70;87.30
53748;DHT22;39655;53.210;5.768;2022-10-26T16:27:06;16.70;87.30
53748;DHT22;39655;53.210;5.768;2022-10-26T16:29:32;16.70;87.20
53748;DHT22;39655;53.210;5.768;2022-10-26T16:31:57;16.70;87.30
53748;DHT22;39655;53.210;5.768;2022-10-26T16:34:23;16.60;87.30
53748;DHT22;39655;53.210;5.768;2022-10-26T16:36:49;16.60;87.20
53748;DHT22;39655;53.210;5.768;2022-10-26T16:39:14;16.60;87.20
53748;DHT22;39655;53.210;5.768;2022-10-26T16:41:40;16.60;87.30
53748;DHT22;39655;53.210;5.768;2022-10-26T16:44:06;16.60;87.30
53748;DHT22;39655;53.210;5.768;2022-10-26T16:46:31;16.60;87.30
53748;DHT22;39655;53.210;5.768;2022-10-26T16:48:57;16.60;87.20
53748;DHT22;39655;53.210;5.768;2022-10-26T16:51:26;16.60;87.30
53748;DHT22;39655;53.210;5.768;2022-10-26T16:53:53;16.60;87.20
53748;DHT22;39655;53.210;5.768;2022-10-26T16:56:22;16.60;87.30
53748;DHT22;39655;53.210;5.768;2022-10-26T16:58:48;16.60;87.40
53748;DHT22;39655;53.210;5.768;2022-10-26T17:01:18;16.60;87.50
53748;DHT22;39655;53.210;5.768;2022-10-26T17:03:44;16.60;87.50
53748;DHT22;39655;53.210;5.768;2022-10-26T17:06:10;16.60;87.50
53748;DHT22;39655;53.210;5.768;2022-10-26T17:08:37;16.60;87.50
53748;DHT22;39655;53.210;5.768;2022-10-26T17:11:16;16.60;87.60
53748;DHT22;39655;53.210;5.768;2022-10-26T17:13:42;16.60;87.70
53748;DHT22;39655;53.210;5.768;2022-10-26T17:16:14;16.50;88.00
53748;DHT22;39655;53.210;5.768;2022-10-26T17:18:41;16.40;88.20
53748;DHT22;39655;53.210;5.768;2022-10-26T17:21:08;16.40;88.40